San Pedro Sula, Honduras
Current Conditions -  °F | °C
As of 12:00 PM on Wednesday 26 Nov 2014 (Local Time) from MHLM Reporting Station
Broken Clouds Broken Clouds  
Wind Chill: 25°   Ceiling: 2000
Heat Index: 26°   Visibility: 6mi
Dew Point: 24°   Wind: 14mph
Humidity: 94%   Direction: 360°N
Pressure: 30.06"   Gusts: NA
Location:  15.47°N, 88.03°W
Report Text: MHLM 261800Z 36012KT 9999 FEW002 BKN020TCU BKN080 25/24 Q1018 A3006 NOSIG
Loading
Personal Weather Stations






























Interactive Weather Map New forecast layout! Learn more

10-Day Weather Forecast

Advertisements
Track Severe Weather on mobile